createdAt,value
2019-03-24T00:02:41.572Z,100702.24
2019-03-24T00:05:47.549Z,100701.83
2019-03-24T00:08:53.212Z,100701.03
2019-03-24T00:11:59.071Z,100696.78
2019-03-24T00:15:05.314Z,100700.73
2019-03-24T00:18:10.991Z,100693.30
2019-03-24T00:21:16.845Z,100688.90
2019-03-24T00:24:22.544Z,100693.17
2019-03-24T00:27:28.404Z,100690.05
2019-03-24T00:30:34.094Z,100693.23
2019-03-24T00:33:39.733Z,100679.75
2019-03-24T00:36:45.381Z,100682.03
2019-03-24T00:39:50.992Z,100679.67
2019-03-24T00:42:56.665Z,100677.63
2019-03-24T00:46:02.316Z,100677.00
2019-03-24T00:49:08.017Z,100684.25
2019-03-24T00:52:13.751Z,100679.60
2019-03-24T00:55:19.489Z,100676.91
2019-03-24T00:58:25.235Z,100676.64
2019-03-24T01:01:30.896Z,100679.14
2019-03-24T01:04:36.694Z,100667.96
2019-03-24T01:07:42.452Z,100676.05
2019-03-24T01:10:48.125Z,100670.52
2019-03-24T01:13:53.819Z,100674.58
2019-03-24T01:16:59.456Z,100673.61
2019-03-24T01:20:05.553Z,100665.85
2019-03-24T01:23:11.212Z,100657.91
2019-03-24T01:26:16.932Z,100648.73
2019-03-24T01:29:22.572Z,100651.06
2019-03-24T01:32:28.244Z,100649.43
2019-03-24T01:35:33.953Z,100650.06
2019-03-24T01:38:39.679Z,100656.00
2019-03-24T01:41:45.366Z,100659.34
2019-03-24T01:44:51.082Z,100649.67
2019-03-24T01:47:56.770Z,100653.25
2019-03-24T01:51:02.453Z,100650.08
2019-03-24T01:54:08.084Z,100658.18
2019-03-24T01:57:13.814Z,100646.19
2019-03-24T02:00:19.491Z,100643.33
2019-03-24T02:03:25.143Z,100643.36
2019-03-24T02:06:30.838Z,100645.59
2019-03-24T02:09:36.511Z,100639.63
2019-03-24T02:12:42.183Z,100641.39
2019-03-24T02:15:47.888Z,100640.48
2019-03-24T02:18:53.557Z,100634.39
2019-03-24T02:21:59.242Z,100639.16
2019-03-24T02:25:05.407Z,100634.66
2019-03-24T02:28:11.106Z,100627.99
2019-03-24T02:31:17.854Z,100633.78
2019-03-24T02:34:23.739Z,100638.93
2019-03-24T02:37:29.402Z,100633.41
2019-03-24T02:40:35.116Z,100643.49
2019-03-24T02:43:40.874Z,100635.97
2019-03-24T02:46:46.615Z,100638.69
2019-03-24T02:49:52.339Z,100635.43
2019-03-24T02:52:58.082Z,100620.45
2019-03-24T02:56:03.803Z,100628.03
2019-03-24T02:59:09.516Z,100624.33
2019-03-24T03:02:15.184Z,100624.95
2019-03-24T03:05:20.909Z,100607.22
2019-03-24T03:08:26.541Z,100606.93
2019-03-24T03:11:32.272Z,100605.93
2019-03-24T03:14:37.891Z,100605.61
2019-03-24T03:17:43.631Z,100594.22
2019-03-24T03:20:49.358Z,100600.91
2019-03-24T03:23:55.042Z,100597.52
2019-03-24T03:27:00.745Z,100603.34
2019-03-24T03:30:07.576Z,100609.91
2019-03-24T03:33:13.244Z,100605.67
2019-03-24T03:36:18.944Z,100605.05
2019-03-24T03:39:24.578Z,100603.35
2019-03-24T03:42:30.531Z,100603.73
2019-03-24T03:45:39.137Z,100607.63
2019-03-24T03:48:43.527Z,100608.00
2019-03-24T03:51:49.140Z,100604.39
2019-03-24T03:54:54.853Z,100600.69
2019-03-24T03:58:00.498Z,100601.77
2019-03-24T04:01:06.201Z,100606.55
2019-03-24T04:04:11.813Z,100608.16
2019-03-24T04:07:17.583Z,100596.07
2019-03-24T04:10:24.425Z,100591.77
2019-03-24T04:13:30.137Z,100596.34
2019-03-24T04:16:35.793Z,100594.33
2019-03-24T04:19:41.470Z,100592.25
2019-03-24T04:22:47.107Z,100591.66
2019-03-24T04:25:52.773Z,100597.77
2019-03-24T04:28:58.490Z,100598.91
2019-03-24T04:32:04.136Z,100592.67
2019-03-24T04:35:10.206Z,100592.83
2019-03-24T04:38:15.906Z,100596.63
2019-03-24T04:41:21.583Z,100596.75
2019-03-24T04:44:27.283Z,100594.33
2019-03-24T04:47:32.950Z,100581.10
2019-03-24T04:50:38.654Z,100593.02
2019-03-24T04:53:44.327Z,100593.72
2019-03-24T04:56:50.011Z,100584.47
2019-03-24T04:59:55.750Z,100579.56
2019-03-24T05:03:01.430Z,100585.77
2019-03-24T05:06:07.670Z,100585.42
2019-03-24T05:09:13.380Z,100578.90
2019-03-24T05:12:19.007Z,100583.31
2019-03-24T05:15:24.767Z,100582.44
2019-03-24T05:18:30.480Z,100580.56
2019-03-24T05:21:36.191Z,100589.95
2019-03-24T05:24:41.830Z,100586.27
2019-03-24T05:27:47.526Z,100582.06
2019-03-24T05:30:53.272Z,100581.10
2019-03-24T05:33:58.983Z,100580.94
2019-03-24T05:37:04.707Z,100589.09
2019-03-24T05:40:10.559Z,100582.77
2019-03-24T05:43:16.274Z,100575.78
2019-03-24T05:46:21.947Z,100580.77
2019-03-24T05:49:27.673Z,100580.31
2019-03-24T05:52:33.382Z,100577.56
2019-03-24T05:55:39.227Z,100570.33
2019-03-24T05:58:44.926Z,100564.30
2019-03-24T06:01:51.658Z,100569.02
2019-03-24T06:04:57.375Z,100573.58
2019-03-24T06:08:03.092Z,100577.73
2019-03-24T06:11:08.871Z,100580.30
2019-03-24T06:14:14.591Z,100577.75
2019-03-24T06:17:20.277Z,100580.73
2019-03-24T06:20:25.980Z,100579.28
2019-03-24T06:23:31.709Z,100576.23
2019-03-24T06:26:37.364Z,100573.34
2019-03-24T06:29:43.027Z,100572.14
2019-03-24T06:32:48.691Z,100569.59
2019-03-24T06:35:54.431Z,100570.43
2019-03-24T06:39:00.231Z,100567.67
2019-03-24T06:42:05.901Z,100567.35
2019-03-24T06:45:11.623Z,100567.53
2019-03-24T06:48:17.455Z,100565.36
2019-03-24T06:51:23.175Z,100565.18
2019-03-24T06:54:28.923Z,100566.40
2019-03-24T06:57:34.616Z,100570.43
2019-03-24T07:00:40.251Z,100572.33
2019-03-24T07:03:45.945Z,100576.22
2019-03-24T07:06:51.628Z,100579.41
2019-03-24T07:09:57.458Z,100576.56
2019-03-24T07:13:03.175Z,100582.59
2019-03-24T07:16:08.889Z,100579.41
2019-03-24T07:19:14.715Z,100575.48
2019-03-24T07:22:22.294Z,100572.31
2019-03-24T07:25:27.939Z,100566.41
2019-03-24T07:28:33.650Z,100569.57
2019-03-24T07:31:39.358Z,100565.07
2019-03-24T07:34:45.054Z,100572.09
2019-03-24T07:37:50.759Z,100568.29
2019-03-24T07:40:56.415Z,100563.41
2019-03-24T07:44:02.113Z,100561.76
2019-03-24T07:47:13.442Z,100566.19
2019-03-24T07:50:19.133Z,100567.43
2019-03-24T07:53:24.921Z,100565.71
2019-03-24T07:56:30.722Z,100570.72
2019-03-24T07:59:36.406Z,100562.00
2019-03-24T08:02:51.478Z,100564.08
2019-03-24T08:05:57.185Z,100556.45
2019-03-24T08:09:04.373Z,100548.23
2019-03-24T08:12:10.090Z,100546.00
2019-03-24T08:15:15.828Z,100540.52
2019-03-24T08:18:29.488Z,100536.13
2019-03-24T08:21:29.005Z,100533.80
2019-03-24T08:24:34.779Z,100526.22
2019-03-24T08:27:40.558Z,100522.48
2019-03-24T08:30:46.264Z,100518.70
2019-03-24T08:33:51.887Z,100511.78
2019-03-24T08:36:57.570Z,100502.36
2019-03-24T08:40:03.302Z,100503.44
2019-03-24T08:43:09.048Z,100506.54
2019-03-24T08:46:16.387Z,100509.39
2019-03-24T08:49:22.651Z,100501.86
2019-03-24T08:52:28.912Z,100508.67
2019-03-24T08:55:34.633Z,100492.69
2019-03-24T08:58:40.324Z,100490.48
2019-03-24T09:01:46.042Z,100491.78
2019-03-24T09:04:51.802Z,100489.79
2019-03-24T09:07:57.521Z,100477.94
2019-03-24T09:11:03.195Z,100472.27
2019-03-24T09:14:08.986Z,100470.97
2019-03-24T09:17:14.670Z,100470.86
2019-03-24T09:20:20.328Z,100466.83
2019-03-24T09:23:26.016Z,100466.23
2019-03-24T09:26:31.803Z,100466.70
2019-03-24T09:29:37.540Z,100453.68
2019-03-24T09:32:43.275Z,100451.89
2019-03-24T09:35:48.954Z,100453.53
2019-03-24T09:38:54.672Z,100452.30
2019-03-24T09:42:00.377Z,100457.50
2019-03-24T09:45:06.366Z,100454.16
2019-03-24T09:48:12.067Z,100445.64
2019-03-24T09:51:17.750Z,100445.72
2019-03-24T09:54:23.432Z,100447.40
2019-03-24T09:57:29.154Z,100447.67
2019-03-24T10:00:34.805Z,100442.31
2019-03-24T10:03:40.598Z,100445.22
2019-03-24T10:06:46.266Z,100445.42
2019-03-24T10:09:51.986Z,100440.50
2019-03-24T10:12:57.649Z,100440.39
2019-03-24T10:16:03.370Z,100435.28
2019-03-24T10:19:13.853Z,100429.08
2019-03-24T10:22:16.491Z,100433.47
2019-03-24T10:25:22.265Z,100423.98
2019-03-24T10:28:28.037Z,100422.70
2019-03-24T10:31:33.736Z,100418.46
2019-03-24T10:34:39.774Z,100413.20
2019-03-24T10:37:45.447Z,100410.46
2019-03-24T10:40:51.164Z,100410.13
2019-03-24T10:43:56.915Z,100408.98
2019-03-24T10:47:02.718Z,100400.42
2019-03-24T10:50:10.675Z,100406.08
2019-03-24T10:53:16.347Z,100408.19
2019-03-24T10:56:22.563Z,100403.69
2019-03-24T10:59:28.396Z,100394.66
2019-03-24T11:02:34.116Z,100400.30
2019-03-24T11:05:41.082Z,100384.55
2019-03-24T11:08:46.833Z,100384.61
2019-03-24T11:11:52.512Z,100378.12
2019-03-24T11:14:58.237Z,100374.44
2019-03-24T11:18:03.945Z,100372.30
2019-03-24T11:21:09.595Z,100372.78
2019-03-24T11:24:15.357Z,100357.84
2019-03-24T11:27:21.052Z,100363.89
2019-03-24T11:30:26.724Z,100356.50
2019-03-24T11:33:32.456Z,100354.03
2019-03-24T11:36:38.123Z,100351.14
2019-03-24T11:39:44.754Z,100343.92
2019-03-24T11:42:50.358Z,100338.70
2019-03-24T11:45:56.071Z,100339.38
2019-03-24T11:49:01.771Z,100336.74
2019-03-24T11:52:07.564Z,100338.78
2019-03-24T11:55:13.367Z,100329.89
2019-03-24T11:58:19.171Z,100325.48
2019-03-24T12:01:24.912Z,100323.28
2019-03-24T12:04:30.660Z,100318.35
2019-03-24T12:07:36.423Z,100314.70
2019-03-24T12:10:42.101Z,100310.92
2019-03-24T12:13:47.818Z,100307.27
2019-03-24T12:16:53.496Z,100294.68
2019-03-24T12:19:59.197Z,100298.05
2019-03-24T12:23:04.933Z,100298.66
2019-03-24T12:26:10.572Z,100295.82
2019-03-24T12:29:16.285Z,100294.02
2019-03-24T12:32:22.010Z,100293.95
2019-03-24T12:35:27.701Z,100285.19
2019-03-24T12:38:33.486Z,100284.19
2019-03-24T12:41:39.185Z,100279.86
2019-03-24T12:44:44.854Z,100270.58
2019-03-24T12:47:50.588Z,100266.97
2019-03-24T12:50:56.294Z,100264.72
2019-03-24T12:54:02.046Z,100261.41
2019-03-24T12:57:07.743Z,100268.20
2019-03-24T13:00:13.947Z,100260.35
2019-03-24T13:03:19.775Z,100253.42
2019-03-24T13:06:25.570Z,100245.67
2019-03-24T13:09:33.598Z,100248.45
2019-03-24T13:12:38.790Z,100251.56
2019-03-24T13:15:44.543Z,100246.08
2019-03-24T13:18:50.316Z,100246.63
2019-03-24T13:21:55.985Z,100235.22
2019-03-24T13:25:01.824Z,100238.23
2019-03-24T13:28:07.561Z,100235.38
2019-03-24T13:31:13.309Z,100231.11
2019-03-24T13:34:18.982Z,100230.77
2019-03-24T13:37:24.626Z,100235.43
2019-03-24T13:40:30.357Z,100236.87
2019-03-24T13:43:36.053Z,100236.92
2019-03-24T13:46:41.852Z,100229.30
2019-03-24T13:49:47.584Z,100228.69
2019-03-24T13:52:53.322Z,100225.73
2019-03-24T13:55:59.001Z,100223.44
2019-03-24T13:59:04.733Z,100228.00
2019-03-24T14:02:10.807Z,100223.67
2019-03-24T14:05:16.832Z,100220.66
2019-03-24T14:08:22.523Z,100215.59
2019-03-24T14:11:28.218Z,100219.27
2019-03-24T14:14:33.982Z,100222.66
2019-03-24T14:17:39.660Z,100226.05
2019-03-24T14:20:45.468Z,100223.34
2019-03-24T14:23:51.105Z,100219.59
2019-03-24T14:26:56.911Z,100223.36
2019-03-24T14:30:02.643Z,100217.79
2019-03-24T14:33:08.447Z,100215.80
2019-03-24T14:36:14.143Z,100209.42
2019-03-24T14:39:19.830Z,100197.58
2019-03-24T14:42:25.548Z,100204.98
2019-03-24T14:45:31.290Z,100199.09
2019-03-24T14:48:37.151Z,100196.12
2019-03-24T14:51:42.884Z,100197.95
2019-03-24T14:54:48.628Z,100197.02
2019-03-24T14:57:54.304Z,100201.43
2019-03-24T15:00:59.991Z,100208.17
2019-03-24T15:04:05.775Z,100196.97
2019-03-24T15:07:11.487Z,100198.78
2019-03-24T15:10:18.209Z,100201.57
2019-03-24T15:13:23.820Z,100196.87
2019-03-24T15:16:29.678Z,100197.46
2019-03-24T15:19:35.399Z,100197.76
2019-03-24T15:22:41.137Z,100199.72
2019-03-24T15:25:46.988Z,100206.92
2019-03-24T15:28:52.727Z,100197.66
2019-03-24T15:31:58.518Z,100195.88
2019-03-24T15:35:04.460Z,100198.52
2019-03-24T15:38:10.367Z,100208.91
2019-03-24T15:41:18.298Z,100200.33
2019-03-24T15:44:23.805Z,100204.47
2019-03-24T15:47:29.537Z,100201.92
2019-03-24T15:50:35.340Z,100205.98
2019-03-24T15:53:41.086Z,100209.11
2019-03-24T15:56:46.891Z,100218.38
2019-03-24T15:59:52.602Z,100217.31
2019-03-24T16:02:58.433Z,100209.97
2019-03-24T16:06:04.131Z,100218.56
2019-03-24T16:09:09.983Z,100210.84
2019-03-24T16:12:15.738Z,100213.45
2019-03-24T16:15:21.394Z,100215.05
2019-03-24T16:18:27.227Z,100224.52
2019-03-24T16:21:33.935Z,100221.38
2019-03-24T16:24:39.713Z,100215.58
2019-03-24T16:27:45.423Z,100215.49
2019-03-24T16:30:51.122Z,100216.66
2019-03-24T16:33:56.781Z,100220.84
2019-03-24T16:37:02.586Z,100223.06
2019-03-24T16:40:08.513Z,100229.30
2019-03-24T16:43:14.393Z,100223.33
2019-03-24T16:46:20.203Z,100236.11
2019-03-24T16:49:25.975Z,100229.64
2019-03-24T16:52:31.806Z,100225.16
2019-03-24T16:55:37.526Z,100229.80
2019-03-24T16:58:43.205Z,100223.83
2019-03-24T17:01:48.895Z,100220.92
2019-03-24T17:04:54.657Z,100223.83
2019-03-24T17:08:00.393Z,100214.16
2019-03-24T17:11:06.178Z,100224.63
2019-03-24T17:14:11.885Z,100223.91
2019-03-24T17:17:17.668Z,100221.53
2019-03-24T17:20:23.394Z,100217.39
2019-03-24T17:23:29.173Z,100211.39
2019-03-24T17:26:34.970Z,100215.51
2019-03-24T17:29:40.802Z,100225.16
2019-03-24T17:32:46.531Z,100230.50
2019-03-24T17:35:52.237Z,100225.02
2019-03-24T17:38:58.238Z,100224.50
2019-03-24T17:42:04.069Z,100229.38
2019-03-24T17:45:10.635Z,100225.95
2019-03-24T17:48:16.429Z,100227.22
2019-03-24T17:51:22.171Z,100225.38
2019-03-24T17:54:27.978Z,100225.16
2019-03-24T17:57:33.729Z,100216.86
2019-03-24T18:00:45.950Z,100217.06
2019-03-24T18:03:51.655Z,100226.42
2019-03-24T18:06:57.440Z,100220.50
2019-03-24T18:10:03.108Z,100218.84
2019-03-24T18:13:08.839Z,100222.28
2019-03-24T18:16:14.609Z,100216.45
2019-03-24T18:19:20.431Z,100221.34
2019-03-24T18:22:26.215Z,100222.48
2019-03-24T18:25:31.956Z,100222.67
2019-03-24T18:28:37.628Z,100223.82
2019-03-24T18:31:43.421Z,100234.97
2019-03-24T18:34:49.293Z,100231.62
2019-03-24T18:37:55.095Z,100230.58
2019-03-24T18:41:00.809Z,100234.13
2019-03-24T18:44:06.659Z,100240.45
2019-03-24T18:47:12.393Z,100238.81
2019-03-24T18:50:18.150Z,100238.69
2019-03-24T18:53:26.009Z,100240.07
2019-03-24T18:56:31.396Z,100229.23
2019-03-24T18:59:37.067Z,100228.64
2019-03-24T19:02:42.769Z,100226.63
2019-03-24T19:05:49.823Z,100228.67
2019-03-24T19:08:55.609Z,100232.83
2019-03-24T19:12:01.320Z,100240.14
2019-03-24T19:15:08.007Z,100243.75
2019-03-24T19:18:13.684Z,100233.94
2019-03-24T19:21:19.782Z,100233.53
2019-03-24T19:24:25.519Z,100236.45
2019-03-24T19:27:31.266Z,100228.01
2019-03-24T19:30:45.909Z,100232.78
2019-03-24T19:33:51.666Z,100225.83
2019-03-24T19:36:58.433Z,100232.44
2019-03-24T19:40:04.266Z,100235.52
2019-03-24T19:43:09.978Z,100230.30
2019-03-24T19:46:15.724Z,100229.11
2019-03-24T19:49:21.496Z,100222.41
2019-03-24T19:52:27.277Z,100227.61
2019-03-24T19:55:33.105Z,100232.59
2019-03-24T19:58:38.882Z,100231.42
2019-03-24T20:01:44.665Z,100233.47
2019-03-24T20:04:51.480Z,100229.09
2019-03-24T20:07:57.415Z,100226.31
2019-03-24T20:11:03.075Z,100230.42
2019-03-24T20:14:08.864Z,100225.55
2019-03-24T20:17:14.548Z,100226.87
2019-03-24T20:20:20.334Z,100234.26
2019-03-24T20:23:26.053Z,100230.78
2019-03-24T20:26:31.765Z,100220.64
2019-03-24T20:29:37.489Z,100229.24
2019-03-24T20:32:43.258Z,100220.23
2019-03-24T20:35:50.010Z,100220.13
2019-03-24T20:38:55.844Z,100218.41
2019-03-24T20:42:01.594Z,100218.27
2019-03-24T20:45:07.649Z,100217.83
2019-03-24T20:48:13.463Z,100210.98
2019-03-24T20:51:19.238Z,100211.34
2019-03-24T20:54:25.110Z,100205.12
2019-03-24T20:57:30.817Z,100204.52
2019-03-24T21:00:37.293Z,100198.48
2019-03-24T21:03:43.086Z,100188.12
2019-03-24T21:06:48.807Z,100191.80
2019-03-24T21:09:54.641Z,100186.61
2019-03-24T21:13:00.539Z,100185.84
2019-03-24T21:16:06.267Z,100192.84
2019-03-24T21:19:12.102Z,100186.02
2019-03-24T21:22:17.931Z,100186.50
2019-03-24T21:25:23.671Z,100195.50
2019-03-24T21:28:29.411Z,100187.19
2019-03-24T21:31:35.145Z,100188.00
2019-03-24T21:34:40.850Z,100185.50
2019-03-24T21:37:46.599Z,100181.84
2019-03-24T21:40:52.354Z,100182.85
2019-03-24T21:43:58.034Z,100180.67
2019-03-24T21:47:03.903Z,100177.31
2019-03-24T21:50:09.897Z,100170.27
2019-03-24T21:53:15.681Z,100178.46
2019-03-24T21:56:21.384Z,100162.48
2019-03-24T21:59:27.126Z,100162.67
2019-03-24T22:02:32.910Z,100164.88
2019-03-24T22:05:38.701Z,100162.97
2019-03-24T22:08:44.502Z,100165.55
2019-03-24T22:11:50.216Z,100157.27
2019-03-24T22:14:55.920Z,100163.38
2019-03-24T22:18:01.751Z,100165.63
2019-03-24T22:21:08.696Z,100167.03
2019-03-24T22:24:14.451Z,100168.19
2019-03-24T22:27:20.173Z,100173.73
2019-03-24T22:30:25.905Z,100173.48
2019-03-24T22:33:31.611Z,100174.02
2019-03-24T22:36:37.343Z,100174.28
2019-03-24T22:39:43.048Z,100172.38
2019-03-24T22:42:48.718Z,100168.05
2019-03-24T22:45:54.411Z,100175.39
2019-03-24T22:49:00.078Z,100168.41
2019-03-24T22:52:07.438Z,100168.22
2019-03-24T22:55:13.595Z,100161.77
2019-03-24T22:58:19.324Z,100159.29
2019-03-24T23:01:26.260Z,100163.49
2019-03-24T23:04:32.102Z,100158.64
2019-03-24T23:07:37.811Z,100156.25
2019-03-24T23:10:43.420Z,100158.64
2019-03-24T23:13:49.165Z,100158.87
2019-03-24T23:16:54.874Z,100146.31
2019-03-24T23:20:00.605Z,100141.31
2019-03-24T23:23:06.435Z,100143.14
2019-03-24T23:26:12.147Z,100145.48
2019-03-24T23:29:17.931Z,100141.52
2019-03-24T23:32:23.584Z,100134.78
2019-03-24T23:35:29.370Z,100143.23
2019-03-24T23:38:35.169Z,100140.69
2019-03-24T23:41:40.982Z,100145.75
2019-03-24T23:44:46.717Z,100147.78
2019-03-24T23:47:52.357Z,100136.77
2019-03-24T23:50:58.021Z,100144.48
2019-03-24T23:54:03.733Z,100150.78
2019-03-24T23:57:09.372Z,100148.78
